createdAt,value
2023-04-18T00:01:24.877Z,99.90
2023-04-18T00:03:52.029Z,99.90
2023-04-18T00:06:19.507Z,99.90
2023-04-18T00:08:46.666Z,99.90
2023-04-18T00:11:13.403Z,99.90
2023-04-18T00:13:40.780Z,99.90
2023-04-18T00:16:08.737Z,99.90
2023-04-18T00:18:36.906Z,99.90
2023-04-18T00:21:04.484Z,99.90
2023-04-18T00:23:31.231Z,99.90
2023-04-18T00:25:58.030Z,99.90
2023-04-18T00:28:24.922Z,99.90
2023-04-18T00:30:51.781Z,99.90
2023-04-18T00:33:18.775Z,99.90
2023-04-18T00:35:45.726Z,99.80
2023-04-18T00:38:12.426Z,99.70
2023-04-18T00:40:40.227Z,99.40
2023-04-18T00:43:12.610Z,99.20
2023-04-18T00:45:39.911Z,99.20
2023-04-18T00:48:07.246Z,99.40
2023-04-18T00:50:34.161Z,99.30
2023-04-18T00:53:01.053Z,98.70
2023-04-18T00:55:28.784Z,98.60
2023-04-18T00:57:55.923Z,97.80
2023-04-18T01:00:22.768Z,97.60
2023-04-18T01:02:53.071Z,97.50
2023-04-18T01:05:21.375Z,97.60
2023-04-18T01:07:48.626Z,97.70
2023-04-18T01:10:15.486Z,97.70
2023-04-18T01:12:42.403Z,97.30
2023-04-18T01:15:09.487Z,96.90
2023-04-18T01:17:36.285Z,96.70
2023-04-18T01:20:06.296Z,96.50
2023-04-18T01:22:33.842Z,96.30
2023-04-18T01:25:00.765Z,96.10
2023-04-18T01:27:27.548Z,95.90
2023-04-18T01:29:54.277Z,95.50
2023-04-18T01:32:22.042Z,95.40
2023-04-18T01:34:48.927Z,95.20
2023-04-18T01:37:15.619Z,95.10
2023-04-18T01:39:42.308Z,94.60
2023-04-18T01:42:09.078Z,93.90
2023-04-18T01:44:35.852Z,93.30
2023-04-18T01:47:02.786Z,92.40
2023-04-18T01:49:29.687Z,91.60
2023-04-18T01:51:56.366Z,91.00
2023-04-18T01:54:23.404Z,90.40
2023-04-18T01:56:50.138Z,90.10
2023-04-18T01:59:16.805Z,89.80
2023-04-18T02:01:43.538Z,89.20
2023-04-18T02:04:10.510Z,88.80
2023-04-18T02:06:37.324Z,88.20
2023-04-18T02:09:04.114Z,88.40
2023-04-18T02:11:30.893Z,87.00
2023-04-18T02:13:59.691Z,86.60
2023-04-18T02:16:26.623Z,86.40
2023-04-18T02:18:53.597Z,85.90
2023-04-18T02:21:21.799Z,85.20
2023-04-18T02:23:48.786Z,85.00
2023-04-18T02:26:15.737Z,84.50
2023-04-18T02:28:42.418Z,84.10
2023-04-18T02:31:14.576Z,83.50
2023-04-18T02:33:45.813Z,83.70
2023-04-18T02:36:13.075Z,82.60
2023-04-18T02:38:39.773Z,82.90
2023-04-18T02:41:06.661Z,82.90
2023-04-18T02:43:33.554Z,83.10
2023-04-18T02:46:00.341Z,83.20
2023-04-18T02:48:27.367Z,83.10
2023-04-18T02:50:54.120Z,82.20
2023-04-18T02:53:23.872Z,81.80
2023-04-18T02:55:50.656Z,80.90
2023-04-18T02:58:17.383Z,79.80
2023-04-18T03:00:44.067Z,79.10
2023-04-18T03:03:11.017Z,78.70
2023-04-18T03:05:39.547Z,78.60
2023-04-18T03:08:06.355Z,78.30
2023-04-18T03:10:33.207Z,78.60
2023-04-18T03:12:59.989Z,78.80
2023-04-18T03:15:26.891Z,79.10
2023-04-18T03:17:53.795Z,79.60
2023-04-18T03:20:20.688Z,79.90
2023-04-18T03:22:47.395Z,79.60
2023-04-18T03:25:14.362Z,79.20
2023-04-18T03:27:42.865Z,78.20
2023-04-18T03:30:10.640Z,76.70
2023-04-18T03:32:38.653Z,75.40
2023-04-18T03:35:05.890Z,74.50
2023-04-18T03:37:32.642Z,74.00
2023-04-18T03:39:59.472Z,73.90
2023-04-18T03:42:26.232Z,74.90
2023-04-18T03:44:53.019Z,74.80
2023-04-18T03:47:19.785Z,75.50
2023-04-18T03:49:46.608Z,76.20
2023-04-18T03:52:13.315Z,76.40
2023-04-18T03:54:40.062Z,76.30
2023-04-18T03:57:06.833Z,76.50
2023-04-18T03:59:33.554Z,77.00
2023-04-18T04:02:00.479Z,77.30
2023-04-18T04:04:27.842Z,77.00
2023-04-18T04:06:54.666Z,76.30
2023-04-18T04:09:21.492Z,76.20
2023-04-18T04:11:48.429Z,75.10
2023-04-18T04:14:15.476Z,74.80
2023-04-18T04:16:42.701Z,74.90
2023-04-18T04:19:09.634Z,74.90
2023-04-18T04:21:36.551Z,75.00
2023-04-18T04:24:03.301Z,75.40
2023-04-18T04:26:30.798Z,75.90
2023-04-18T04:28:57.731Z,76.20
2023-04-18T04:31:24.543Z,76.10
2023-04-18T04:33:51.360Z,75.70
2023-04-18T04:36:19.113Z,75.60
2023-04-18T04:38:46.099Z,75.50
2023-04-18T04:41:12.881Z,75.30
2023-04-18T04:43:41.367Z,75.40
2023-04-18T04:46:08.837Z,75.20
2023-04-18T04:48:35.624Z,75.40
2023-04-18T04:51:02.387Z,75.90
2023-04-18T04:53:32.736Z,76.10
2023-04-18T04:55:59.550Z,76.50
2023-04-18T04:58:26.701Z,76.50
2023-04-18T05:00:53.863Z,76.10
2023-04-18T05:03:21.051Z,75.40
2023-04-18T05:05:48.413Z,75.10
2023-04-18T05:08:15.310Z,74.90
2023-04-18T05:10:43.223Z,75.00
2023-04-18T05:13:10.071Z,74.50
2023-04-18T05:15:36.912Z,74.90
2023-04-18T05:18:03.805Z,75.10
2023-04-18T05:20:30.551Z,75.00
2023-04-18T05:22:57.255Z,75.40
2023-04-18T05:25:24.066Z,75.40
2023-04-18T05:27:51.187Z,75.50
2023-04-18T05:30:18.174Z,75.60
2023-04-18T05:32:44.949Z,76.00
2023-04-18T05:35:11.799Z,75.80
2023-04-18T05:37:38.610Z,76.40
2023-04-18T05:40:06.055Z,76.30
2023-04-18T05:42:33.349Z,76.50
2023-04-18T05:45:00.139Z,76.80
2023-04-18T05:47:28.650Z,77.30
2023-04-18T05:49:55.986Z,78.30
2023-04-18T05:52:22.810Z,78.70
2023-04-18T05:54:49.824Z,79.30
2023-04-18T05:57:16.519Z,79.70
2023-04-18T05:59:43.815Z,80.10
2023-04-18T06:02:13.555Z,80.20
2023-04-18T06:04:42.701Z,80.80
2023-04-18T06:07:10.203Z,80.70
2023-04-18T06:09:37.111Z,81.30
2023-04-18T06:12:04.167Z,82.50
2023-04-18T06:14:31.006Z,82.10
2023-04-18T06:16:57.973Z,82.40
2023-04-18T06:19:25.369Z,82.40
2023-04-18T06:21:53.462Z,82.20
2023-04-18T06:24:21.479Z,82.20
2023-04-18T06:26:51.257Z,82.10
2023-04-18T06:29:18.286Z,82.40
2023-04-18T06:31:46.754Z,81.50
2023-04-18T06:34:14.188Z,80.30
2023-04-18T06:36:41.131Z,80.20
2023-04-18T06:39:08.119Z,80.00
2023-04-18T06:41:34.954Z,80.20
2023-04-18T06:44:03.318Z,78.90
2023-04-18T06:46:31.893Z,77.30
2023-04-18T06:48:58.955Z,75.40
2023-04-18T06:51:25.967Z,75.20
2023-04-18T06:53:53.744Z,73.80
2023-04-18T06:56:21.255Z,73.90
2023-04-18T06:58:48.499Z,74.40
2023-04-18T07:01:16.077Z,74.10
2023-04-18T07:03:42.850Z,72.90
2023-04-18T07:06:10.927Z,72.80
2023-04-18T07:08:37.944Z,73.20
2023-04-18T07:11:05.532Z,74.00
2023-04-18T07:13:32.340Z,73.30
2023-04-18T07:15:59.459Z,73.00
2023-04-18T07:18:36.705Z,74.70
2023-04-18T07:21:07.893Z,72.10
2023-04-18T07:23:35.708Z,70.30
2023-04-18T07:26:03.096Z,69.40
2023-04-18T07:28:31.924Z,67.60
2023-04-18T07:30:59.414Z,66.30
2023-04-18T07:33:26.276Z,63.40
2023-04-18T07:35:53.239Z,63.90
2023-04-18T07:38:20.166Z,65.00
2023-04-18T07:40:46.880Z,63.80
2023-04-18T07:43:13.637Z,61.30
2023-04-18T07:45:43.221Z,61.40
2023-04-18T07:48:11.369Z,62.50
2023-04-18T07:50:38.276Z,63.10
2023-04-18T07:53:05.212Z,62.30
2023-04-18T07:55:32.072Z,62.80
2023-04-18T07:57:58.992Z,62.40
2023-04-18T08:00:26.380Z,62.80
2023-04-18T08:02:53.411Z,63.70
2023-04-18T08:05:20.637Z,62.70
2023-04-18T08:07:47.346Z,62.30
2023-04-18T08:10:14.209Z,62.00
2023-04-18T08:12:41.125Z,61.80
2023-04-18T08:15:08.709Z,62.60
2023-04-18T08:17:35.945Z,61.00
2023-04-18T08:20:07.287Z,61.20
2023-04-18T08:22:34.242Z,62.40
2023-04-18T08:25:05.329Z,62.30
2023-04-18T08:27:32.713Z,59.10
2023-04-18T08:29:59.845Z,56.90
2023-04-18T08:32:26.710Z,56.70
2023-04-18T08:34:53.414Z,57.90
2023-04-18T08:37:20.094Z,55.70
2023-04-18T08:39:46.810Z,56.70
2023-04-18T08:42:19.278Z,56.80
2023-04-18T08:44:47.317Z,56.50
2023-04-18T08:47:14.635Z,57.50
2023-04-18T08:49:42.583Z,58.10
2023-04-18T08:52:14.567Z,58.90
2023-04-18T08:54:42.837Z,57.80
2023-04-18T08:57:10.796Z,58.20
2023-04-18T08:59:37.509Z,56.00
2023-04-18T09:02:09.111Z,54.30
2023-04-18T09:04:44.736Z,55.00
2023-04-18T09:07:19.442Z,56.30
2023-04-18T09:09:54.429Z,55.40
2023-04-18T09:12:23.694Z,54.30
2023-04-18T09:14:52.361Z,53.90
2023-04-18T09:17:31.714Z,54.10
2023-04-18T09:20:00.151Z,54.10
2023-04-18T09:22:42.630Z,53.70
2023-04-18T09:25:09.728Z,53.50
2023-04-18T09:27:36.594Z,54.20
2023-04-18T09:30:03.705Z,53.30
2023-04-18T09:32:30.737Z,51.80
2023-04-18T09:35:04.440Z,51.10
2023-04-18T09:37:31.642Z,49.10
2023-04-18T09:39:58.483Z,47.90
2023-04-18T09:42:28.197Z,48.00
2023-04-18T09:45:07.194Z,47.70
2023-04-18T09:47:35.206Z,47.40
2023-04-18T09:50:07.383Z,47.80
2023-04-18T09:52:36.134Z,46.60
2023-04-18T09:55:04.991Z,46.60
2023-04-18T09:57:33.525Z,47.00
2023-04-18T10:00:13.454Z,47.10
2023-04-18T10:03:05.443Z,47.30
2023-04-18T10:05:34.789Z,46.50
2023-04-18T10:08:02.216Z,47.00
2023-04-18T10:10:29.381Z,47.00
2023-04-18T10:12:58.987Z,46.10
2023-04-18T10:15:27.866Z,46.40
2023-04-18T10:20:29.906Z,45.10
2023-04-18T10:22:58.123Z,42.90
2023-04-18T10:25:40.146Z,42.70
2023-04-18T10:28:09.883Z,43.70
2023-04-18T10:30:42.672Z,43.80
2023-04-18T10:36:05.149Z,45.00
2023-04-18T10:38:33.959Z,44.40
2023-04-18T10:41:24.764Z,43.30
2023-04-18T10:44:12.264Z,43.30
2023-04-18T10:46:48.407Z,42.70
2023-04-18T10:49:22.369Z,42.80
2023-04-18T10:52:02.287Z,43.10
2023-04-18T10:54:30.900Z,42.70
2023-04-18T10:56:59.659Z,42.20
2023-04-18T10:59:27.084Z,42.00
2023-04-18T11:01:57.302Z,42.10
2023-04-18T11:04:25.558Z,42.20
2023-04-18T11:06:57.113Z,42.00
2023-04-18T11:09:24.646Z,42.40
2023-04-18T11:12:06.208Z,42.40
2023-04-18T11:14:46.461Z,43.00
2023-04-18T11:17:27.350Z,42.40
2023-04-18T11:20:14.826Z,42.60
2023-04-18T11:22:51.580Z,43.50
2023-04-18T11:25:22.110Z,42.80
2023-04-18T11:27:55.654Z,42.70
2023-04-18T11:30:22.828Z,43.70
2023-04-18T11:32:49.720Z,43.30
2023-04-18T11:35:16.521Z,42.70
2023-04-18T11:37:45.873Z,43.00
2023-04-18T11:40:13.978Z,42.30
2023-04-18T11:42:41.556Z,42.10
2023-04-18T11:45:13.479Z,43.10
2023-04-18T11:47:42.842Z,43.70
2023-04-18T11:50:11.528Z,44.80
2023-04-18T11:52:40.948Z,42.80
2023-04-18T11:55:13.975Z,42.50
2023-04-18T11:57:41.867Z,41.70
2023-04-18T12:00:12.212Z,41.40
2023-04-18T12:02:43.964Z,40.10
2023-04-18T12:05:14.527Z,39.90
2023-04-18T12:07:44.383Z,39.90
2023-04-18T12:10:27.665Z,39.60
2023-04-18T12:12:56.868Z,38.80
2023-04-18T12:15:27.073Z,39.30
2023-04-18T12:17:59.492Z,38.90
2023-04-18T12:20:37.396Z,38.80
2023-04-18T12:23:05.050Z,39.40
2023-04-18T12:25:32.104Z,39.20
2023-04-18T12:28:12.836Z,38.80
2023-04-18T12:30:39.518Z,38.10
2023-04-18T12:33:06.711Z,38.20
2023-04-18T12:35:33.524Z,37.70
2023-04-18T12:38:02.382Z,38.10
2023-04-18T12:40:29.987Z,38.30
2023-04-18T12:42:56.898Z,38.70
2023-04-18T12:45:24.086Z,38.70
2023-04-18T12:47:52.317Z,38.90
2023-04-18T12:50:21.833Z,38.70
2023-04-18T12:52:49.104Z,39.00
2023-04-18T12:55:16.016Z,39.30
2023-04-18T12:57:43.663Z,39.90
2023-04-18T13:00:13.115Z,40.20
2023-04-18T13:02:43.063Z,40.40
2023-04-18T13:05:11.601Z,40.90
2023-04-18T13:07:40.490Z,40.50
2023-04-18T13:10:18.672Z,40.40
2023-04-18T13:12:46.861Z,40.70
2023-04-18T13:15:13.782Z,40.70
2023-04-18T13:17:40.649Z,40.80
2023-04-18T13:20:10.679Z,41.00
2023-04-18T13:22:38.530Z,40.90
2023-04-18T13:25:07.100Z,40.40
2023-04-18T13:27:34.289Z,40.40
2023-04-18T13:30:01.145Z,40.40
2023-04-18T13:32:28.117Z,41.10
2023-04-18T13:34:56.121Z,41.50
2023-04-18T13:37:23.666Z,41.80
2023-04-18T13:39:50.603Z,42.20
2023-04-18T13:42:19.282Z,42.70
2023-04-18T13:44:46.782Z,42.80
2023-04-18T13:47:13.569Z,42.80
2023-04-18T13:49:40.938Z,42.50
2023-04-18T13:52:07.841Z,42.60
2023-04-18T13:54:34.699Z,42.50
2023-04-18T13:57:11.392Z,41.90
2023-04-18T13:59:41.560Z,41.20
2023-04-18T14:02:10.964Z,40.60
2023-04-18T14:04:38.253Z,40.50
2023-04-18T14:07:06.354Z,41.30
2023-04-18T14:09:33.613Z,40.90
2023-04-18T14:12:00.438Z,40.70
2023-04-18T14:14:27.198Z,41.40
2023-04-18T14:16:54.105Z,40.40
2023-04-18T14:19:20.990Z,39.80
2023-04-18T14:21:48.628Z,40.20
2023-04-18T14:24:15.649Z,40.40
2023-04-18T14:26:42.433Z,40.80
2023-04-18T14:29:09.222Z,41.20
2023-04-18T14:31:36.616Z,41.40
2023-04-18T14:34:03.465Z,42.00
2023-04-18T14:36:30.930Z,42.50
2023-04-18T14:38:57.856Z,43.20
2023-04-18T14:41:24.594Z,43.00
2023-04-18T14:43:51.395Z,42.60
2023-04-18T14:46:18.246Z,41.90
2023-04-18T14:48:49.170Z,41.60
2023-04-18T14:51:16.716Z,41.50
2023-04-18T14:53:44.654Z,41.20
2023-04-18T14:56:11.764Z,40.60
2023-04-18T14:58:38.534Z,40.20
2023-04-18T15:01:05.620Z,40.20
2023-04-18T15:03:33.381Z,40.90
2023-04-18T15:06:00.423Z,40.70
2023-04-18T15:08:27.607Z,40.50
2023-04-18T15:10:55.423Z,40.80
2023-04-18T15:13:22.185Z,40.60
2023-04-18T15:15:53.265Z,40.50
2023-04-18T15:18:20.587Z,41.40
2023-04-18T15:20:47.567Z,42.00
2023-04-18T15:23:15.081Z,40.00
2023-04-18T15:25:42.679Z,36.40
2023-04-18T15:28:09.597Z,34.30
2023-04-18T15:30:36.516Z,30.30
2023-04-18T15:33:03.423Z,29.20
2023-04-18T15:35:30.264Z,29.90
2023-04-18T15:37:57.515Z,29.80
2023-04-18T15:40:24.481Z,30.30
2023-04-18T15:42:53.611Z,31.50
2023-04-18T15:45:21.886Z,31.80
2023-04-18T15:47:48.910Z,31.90
2023-04-18T15:50:16.565Z,31.80
2023-04-18T15:52:43.972Z,32.30
2023-04-18T15:55:13.350Z,33.30
2023-04-18T15:57:40.614Z,31.90
2023-04-18T16:00:16.060Z,29.60
2023-04-18T16:02:46.486Z,27.80
2023-04-18T16:05:13.943Z,26.50
2023-04-18T16:07:42.246Z,26.40
2023-04-18T16:10:10.891Z,27.50
2023-04-18T16:12:38.390Z,27.30
2023-04-18T16:15:09.329Z,26.60
2023-04-18T16:17:38.949Z,25.00
2023-04-18T16:20:08.339Z,23.90
2023-04-18T16:22:35.213Z,22.70
2023-04-18T16:25:02.179Z,22.30
2023-04-18T16:27:29.069Z,23.00
2023-04-18T16:29:56.036Z,22.90
2023-04-18T16:32:22.773Z,22.30
2023-04-18T16:34:49.875Z,21.70
2023-04-18T16:37:17.919Z,21.40
2023-04-18T16:39:44.665Z,21.00
2023-04-18T16:42:13.358Z,20.70
2023-04-18T16:44:41.710Z,20.70
2023-04-18T16:47:08.572Z,20.60
2023-04-18T16:49:35.667Z,20.90
2023-04-18T16:52:02.404Z,21.10
2023-04-18T16:54:29.577Z,21.10
2023-04-18T16:56:57.055Z,20.70
2023-04-18T16:59:23.931Z,20.60
2023-04-18T17:01:50.841Z,20.70
2023-04-18T17:04:17.839Z,22.10
2023-04-18T17:06:44.861Z,21.40
2023-04-18T17:09:13.696Z,21.30
2023-04-18T17:11:42.115Z,21.40
2023-04-18T17:14:09.328Z,21.40
2023-04-18T17:16:39.059Z,21.80
2023-04-18T17:19:06.006Z,21.60
2023-04-18T17:21:34.057Z,21.80
2023-04-18T17:24:03.836Z,22.70
2023-04-18T17:26:31.135Z,24.30
2023-04-18T17:28:58.217Z,24.90
2023-04-18T17:31:24.968Z,24.40
2023-04-18T17:33:51.790Z,23.90
2023-04-18T17:36:18.590Z,23.70
2023-04-18T17:38:48.955Z,23.30
2023-04-18T17:41:20.224Z,22.90
2023-04-18T17:43:48.571Z,22.80
2023-04-18T17:46:15.516Z,22.70
2023-04-18T17:48:42.455Z,23.50
2023-04-18T17:51:09.325Z,22.60
2023-04-18T17:53:36.038Z,22.80
2023-04-18T17:56:03.770Z,22.80
2023-04-18T17:58:30.609Z,22.70
2023-04-18T18:00:57.516Z,23.70
2023-04-18T18:03:24.701Z,23.00
2023-04-18T18:05:51.890Z,23.30
2023-04-18T18:08:18.597Z,24.20
2023-04-18T18:10:47.053Z,25.90
2023-04-18T18:13:13.975Z,27.30
2023-04-18T18:15:40.689Z,28.70
2023-04-18T18:18:07.534Z,29.80
2023-04-18T18:20:34.385Z,31.10
2023-04-18T18:23:01.780Z,32.30
2023-04-18T18:25:28.768Z,33.20
2023-04-18T18:27:55.651Z,34.10
2023-04-18T18:30:22.721Z,34.90
2023-04-18T18:32:49.644Z,35.90
2023-04-18T18:35:16.502Z,37.60
2023-04-18T18:37:43.228Z,37.40
2023-04-18T18:40:10.440Z,38.30
2023-04-18T18:42:37.529Z,39.00
2023-04-18T18:45:04.852Z,39.80
2023-04-18T18:47:31.793Z,40.60
2023-04-18T18:49:58.498Z,41.40
2023-04-18T18:52:27.980Z,41.80
2023-04-18T18:54:55.098Z,42.20
2023-04-18T18:57:22.034Z,42.40
2023-04-18T18:59:50.211Z,43.00
2023-04-18T19:02:17.429Z,43.70
2023-04-18T19:04:44.417Z,44.00
2023-04-18T19:07:11.236Z,44.40
2023-04-18T19:09:38.053Z,44.70
2023-04-18T19:12:05.648Z,45.00
2023-04-18T19:14:32.787Z,45.30
2023-04-18T19:16:59.586Z,45.50
2023-04-18T19:19:26.328Z,45.90
2023-04-18T19:21:53.126Z,46.40
2023-04-18T19:24:19.993Z,47.90
2023-04-18T19:26:46.760Z,47.60
2023-04-18T19:29:14.585Z,47.50
2023-04-18T19:31:43.770Z,47.90
2023-04-18T19:34:11.973Z,48.60
2023-04-18T19:36:38.974Z,49.00
2023-04-18T19:39:05.828Z,49.90
2023-04-18T19:41:32.619Z,50.50
2023-04-18T19:43:59.387Z,51.00
2023-04-18T19:46:26.320Z,51.80
2023-04-18T19:48:53.086Z,51.80
2023-04-18T19:51:19.807Z,52.50
2023-04-18T19:53:46.549Z,53.60
2023-04-18T19:56:14.896Z,54.70
2023-04-18T19:58:46.658Z,55.10
2023-04-18T20:01:18.887Z,55.60
2023-04-18T20:03:47.053Z,55.90
2023-04-18T20:06:14.300Z,56.70
2023-04-18T20:08:41.748Z,57.20
2023-04-18T20:11:10.466Z,57.70
2023-04-18T20:13:37.656Z,57.90
2023-04-18T20:16:05.397Z,58.00
2023-04-18T20:18:33.983Z,59.10
2023-04-18T20:21:00.698Z,61.40
2023-04-18T20:23:27.403Z,62.10
2023-04-18T20:25:54.203Z,63.20
2023-04-18T20:28:20.992Z,64.30
2023-04-18T20:30:48.125Z,64.00
2023-04-18T20:33:14.918Z,65.10
2023-04-18T20:35:41.685Z,65.60
2023-04-18T20:38:08.953Z,65.90
2023-04-18T20:40:38.746Z,65.80
2023-04-18T20:43:08.076Z,65.50
2023-04-18T20:45:37.567Z,66.10
2023-04-18T20:48:04.627Z,68.20
2023-04-18T20:50:31.514Z,68.90
2023-04-18T20:53:00.424Z,68.70
2023-04-18T20:55:27.272Z,69.10
2023-04-18T20:57:54.158Z,69.00
2023-04-18T21:00:20.894Z,69.20
2023-04-18T21:02:47.786Z,68.70
2023-04-18T21:05:14.625Z,69.20
2023-04-18T21:07:41.360Z,69.80
2023-04-18T21:10:08.423Z,70.00
2023-04-18T21:12:35.184Z,71.20
2023-04-18T21:15:02.208Z,71.10
2023-04-18T21:17:29.055Z,71.20
2023-04-18T21:19:55.832Z,71.00
2023-04-18T21:22:22.667Z,70.70
2023-04-18T21:24:49.463Z,70.60
2023-04-18T21:27:16.309Z,71.30
2023-04-18T21:29:43.090Z,71.40
2023-04-18T21:32:09.882Z,71.50
2023-04-18T21:34:36.806Z,71.10
2023-04-18T21:37:03.852Z,71.70
2023-04-18T21:39:31.240Z,71.30
2023-04-18T21:41:57.929Z,71.20
2023-04-18T21:44:24.850Z,71.90
2023-04-18T21:46:51.780Z,72.50
2023-04-18T21:49:18.584Z,73.70
2023-04-18T21:51:45.424Z,72.90
2023-04-18T21:54:12.424Z,72.60
2023-04-18T21:56:39.395Z,73.90
2023-04-18T21:59:06.069Z,73.20
2023-04-18T22:01:35.939Z,73.10
2023-04-18T22:04:02.914Z,73.30
2023-04-18T22:06:30.951Z,74.20
2023-04-18T22:08:58.251Z,73.70
2023-04-18T22:11:25.208Z,73.80
2023-04-18T22:13:54.214Z,74.00
2023-04-18T22:16:22.154Z,74.30
2023-04-18T22:18:49.340Z,74.40
2023-04-18T22:21:16.369Z,74.70
2023-04-18T22:23:43.132Z,74.80
2023-04-18T22:26:09.927Z,74.30
2023-04-18T22:28:37.074Z,74.70
2023-04-18T22:31:03.833Z,75.30
2023-04-18T22:33:30.698Z,75.30
2023-04-18T22:35:57.456Z,75.90
2023-04-18T22:38:25.178Z,76.10
2023-04-18T22:40:52.008Z,76.50
2023-04-18T22:43:23.748Z,76.20
2023-04-18T22:45:51.517Z,76.30
2023-04-18T22:48:18.481Z,76.80
2023-04-18T22:50:46.224Z,77.70
2023-04-18T22:53:15.246Z,77.30
2023-04-18T22:55:43.855Z,77.40
2023-04-18T22:58:11.714Z,78.30
2023-04-18T23:00:38.519Z,79.00
2023-04-18T23:03:05.600Z,78.80
2023-04-18T23:05:33.314Z,78.80
2023-04-18T23:08:00.600Z,80.00
2023-04-18T23:10:28.066Z,79.80
2023-04-18T23:12:54.935Z,80.00
2023-04-18T23:15:22.867Z,80.40
2023-04-18T23:17:54.788Z,80.80
2023-04-18T23:20:23.802Z,81.90
2023-04-18T23:22:51.698Z,81.50
2023-04-18T23:25:19.656Z,82.00
2023-04-18T23:27:46.946Z,82.20
2023-04-18T23:30:13.875Z,83.10
2023-04-18T23:32:40.693Z,83.60
2023-04-18T23:35:07.842Z,84.30
2023-04-18T23:37:34.535Z,84.20
2023-04-18T23:40:01.346Z,84.10
2023-04-18T23:42:28.105Z,84.30
2023-04-18T23:44:54.968Z,85.10
2023-04-18T23:47:21.988Z,85.50
2023-04-18T23:49:48.773Z,85.70
2023-04-18T23:52:15.652Z,86.20
2023-04-18T23:54:42.404Z,86.90
2023-04-18T23:57:09.119Z,87.40
2023-04-18T23:59:35.790Z,88.00
